sensor_id;sensor_type;location;lat;lon;timestamp;temperature;humidity
22065;DHT22;11197;53.110;8.468;2023-02-19T00:01:22;7.70;99.90
22065;DHT22;11197;53.110;8.468;2023-02-19T00:03:53;7.70;99.90
22065;DHT22;11197;53.110;8.468;2023-02-19T00:06:20;7.70;99.90
22065;DHT22;11197;53.110;8.468;2023-02-19T00:08:47;7.70;99.90
22065;DHT22;11197;53.110;8.468;2023-02-19T00:11:18;7.70;99.90
22065;DHT22;11197;53.110;8.468;2023-02-19T00:13:46;7.70;99.90
22065;DHT22;11197;53.110;8.468;2023-02-19T00:16:18;7.60;99.90
22065;DHT22;11197;53.110;8.468;2023-02-19T00:18:45;7.60;99.90
22065;DHT22;11197;53.110;8.468;2023-02-19T00:21:11;7.60;99.90
22065;DHT22;11197;53.110;8.468;2023-02-19T00:23:38;7.60;99.90
22065;DHT22;11197;53.110;8.468;2023-02-19T00:26:10;7.60;99.90
22065;DHT22;11197;53.110;8.468;2023-02-19T00:28:38;7.60;99.90
22065;DHT22;11197;53.110;8.468;2023-02-19T00:31:11;7.50;99.90
22065;DHT22;11197;53.110;8.468;2023-02-19T00:33:39;7.50;99.90
22065;DHT22;11197;53.110;8.468;2023-02-19T00:36:05;7.50;99.90
22065;DHT22;11197;53.110;8.468;2023-02-19T00:38:35;7.40;99.90
22065;DHT22;11197;53.110;8.468;2023-02-19T00:41:02;7.40;99.90
22065;DHT22;11197;53.110;8.468;2023-02-19T00:44:01;7.40;99.90
22065;DHT22;11197;53.110;8.468;2023-02-19T00:46:36;7.30;99.90
22065;DHT22;11197;53.110;8.468;2023-02-19T00:49:06;7.30;99.90
22065;DHT22;11197;53.110;8.468;2023-02-19T00:51:37;7.30;99.90
22065;DHT22;11197;53.110;8.468;2023-02-19T00:54:04;7.30;99.90
22065;DHT22;11197;53.110;8.468;2023-02-19T00:56:30;7.30;99.90
22065;DHT22;11197;53.110;8.468;2023-02-19T00:58:56;7.30;99.90
22065;DHT22;11197;53.110;8.468;2023-02-19T01:01:22;7.20;99.90
22065;DHT22;11197;53.110;8.468;2023-02-19T01:03:49;7.20;99.90
22065;DHT22;11197;53.110;8.468;2023-02-19T01:06:17;7.20;99.90
22065;DHT22;11197;53.110;8.468;2023-02-19T01:08:49;7.20;99.90
22065;DHT22;11197;53.110;8.468;2023-02-19T01:11:15;7.10;99.90
22065;DHT22;11197;53.110;8.468;2023-02-19T01:13:42;7.10;99.90
22065;DHT22;11197;53.110;8.468;2023-02-19T01:18:42;7.10;99.90
22065;DHT22;11197;53.110;8.468;2023-02-19T01:21:12;7.10;99.90
22065;DHT22;11197;53.110;8.468;2023-02-19T01:23:38;7.10;99.90
22065;DHT22;11197;53.110;8.468;2023-02-19T01:26:11;7.10;99.90
22065;DHT22;11197;53.110;8.468;2023-02-19T01:28:38;7.00;99.90
22065;DHT22;11197;53.110;8.468;2023-02-19T01:31:05;7.00;99.90
22065;DHT22;11197;53.110;8.468;2023-02-19T01:33:32;7.00;99.90
22065;DHT22;11197;53.110;8.468;2023-02-19T01:35:58;7.00;99.90
22065;DHT22;11197;53.110;8.468;2023-02-19T01:38:24;7.00;99.90
22065;DHT22;11197;53.110;8.468;2023-02-19T01:40:59;7.00;99.90
22065;DHT22;11197;53.110;8.468;2023-02-19T01:43:25;7.00;99.90
22065;DHT22;11197;53.110;8.468;2023-02-19T01:45:51;7.00;99.90
22065;DHT22;11197;53.110;8.468;2023-02-19T01:48:22;6.90;99.90
22065;DHT22;11197;53.110;8.468;2023-02-19T01:51:02;6.90;99.90
22065;DHT22;11197;53.110;8.468;2023-02-19T01:53:33;6.90;99.90
22065;DHT22;11197;53.110;8.468;2023-02-19T01:56:00;6.80;99.90
22065;DHT22;11197;53.110;8.468;2023-02-19T01:58:32;6.80;99.90
22065;DHT22;11197;53.110;8.468;2023-02-19T02:01:00;6.80;99.90
22065;DHT22;11197;53.110;8.468;2023-02-19T02:03:27;6.80;99.90
22065;DHT22;11197;53.110;8.468;2023-02-19T02:06:01;6.80;99.90
22065;DHT22;11197;53.110;8.468;2023-02-19T02:08:31;6.90;99.90
22065;DHT22;11197;53.110;8.468;2023-02-19T02:11:19;6.80;99.90
22065;DHT22;11197;53.110;8.468;2023-02-19T02:13:46;6.90;99.90
22065;DHT22;11197;53.110;8.468;2023-02-19T02:35:55;6.70;99.90
22065;DHT22;11197;53.110;8.468;2023-02-19T02:38:27;6.80;99.90
22065;DHT22;11197;53.110;8.468;2023-02-19T02:40:54;6.70;99.90
22065;DHT22;11197;53.110;8.468;2023-02-19T02:43:20;6.70;99.90
22065;DHT22;11197;53.110;8.468;2023-02-19T02:45:46;6.60;99.90
22065;DHT22;11197;53.110;8.468;2023-02-19T02:48:33;6.60;99.90
22065;DHT22;11197;53.110;8.468;2023-02-19T02:53:49;6.60;99.90
22065;DHT22;11197;53.110;8.468;2023-02-19T02:56:34;6.60;99.90
22065;DHT22;11197;53.110;8.468;2023-02-19T02:59:03;6.60;99.90
22065;DHT22;11197;53.110;8.468;2023-02-19T03:01:41;6.60;99.90
22065;DHT22;11197;53.110;8.468;2023-02-19T03:07:51;6.60;99.90
22065;DHT22;11197;53.110;8.468;2023-02-19T03:10:24;6.50;99.90
22065;DHT22;11197;53.110;8.468;2023-02-19T03:12:53;6.50;99.90
22065;DHT22;11197;53.110;8.468;2023-02-19T03:15:55;6.50;99.90
22065;DHT22;11197;53.110;8.468;2023-02-19T03:18:43;6.50;99.90
22065;DHT22;11197;53.110;8.468;2023-02-19T03:21:31;6.50;99.90
22065;DHT22;11197;53.110;8.468;2023-02-19T03:23:59;6.50;99.90
22065;DHT22;11197;53.110;8.468;2023-02-19T03:26:44;6.50;99.90
22065;DHT22;11197;53.110;8.468;2023-02-19T03:29:12;6.50;99.90
22065;DHT22;11197;53.110;8.468;2023-02-19T03:31:53;6.50;99.90
22065;DHT22;11197;53.110;8.468;2023-02-19T03:34:29;6.40;99.90
22065;DHT22;11197;53.110;8.468;2023-02-19T03:37:11;6.40;99.90
22065;DHT22;11197;53.110;8.468;2023-02-19T03:39:38;6.40;99.90
22065;DHT22;11197;53.110;8.468;2023-02-19T03:42:23;6.40;99.90
22065;DHT22;11197;53.110;8.468;2023-02-19T03:47:53;6.30;99.90
22065;DHT22;11197;53.110;8.468;2023-02-19T03:50:56;6.30;99.90
22065;DHT22;11197;53.110;8.468;2023-02-19T03:53:35;6.20;99.90
22065;DHT22;11197;53.110;8.468;2023-02-19T03:56:15;6.30;99.90
22065;DHT22;11197;53.110;8.468;2023-02-19T03:59:00;6.20;99.90
22065;DHT22;11197;53.110;8.468;2023-02-19T04:01:43;6.20;99.90
22065;DHT22;11197;53.110;8.468;2023-02-19T04:04:15;6.10;99.90
22065;DHT22;11197;53.110;8.468;2023-02-19T04:06:45;6.10;99.90
22065;DHT22;11197;53.110;8.468;2023-02-19T04:09:13;6.00;99.90
22065;DHT22;11197;53.110;8.468;2023-02-19T04:11:41;6.00;99.90
22065;DHT22;11197;53.110;8.468;2023-02-19T04:14:14;6.00;99.90
22065;DHT22;11197;53.110;8.468;2023-02-19T04:16:46;6.00;99.90
22065;DHT22;11197;53.110;8.468;2023-02-19T04:19:14;6.00;99.90
22065;DHT22;11197;53.110;8.468;2023-02-19T04:21:43;6.00;99.90
22065;DHT22;11197;53.110;8.468;2023-02-19T04:24:13;6.00;99.90
22065;DHT22;11197;53.110;8.468;2023-02-19T04:26:41;6.00;99.90
22065;DHT22;11197;53.110;8.468;2023-02-19T04:29:08;6.00;99.90
22065;DHT22;11197;53.110;8.468;2023-02-19T04:31:34;6.00;99.90
22065;DHT22;11197;53.110;8.468;2023-02-19T04:34:01;6.00;99.90
22065;DHT22;11197;53.110;8.468;2023-02-19T04:36:29;6.00;99.90
22065;DHT22;11197;53.110;8.468;2023-02-19T04:38:56;6.10;99.90
22065;DHT22;11197;53.110;8.468;2023-02-19T04:41:22;6.10;99.90
22065;DHT22;11197;53.110;8.468;2023-02-19T04:43:47;6.00;99.90
22065;DHT22;11197;53.110;8.468;2023-02-19T04:46:13;6.10;99.90
22065;DHT22;11197;53.110;8.468;2023-02-19T04:48:39;6.10;99.90
22065;DHT22;11197;53.110;8.468;2023-02-19T04:51:08;6.10;99.90
22065;DHT22;11197;53.110;8.468;2023-02-19T04:53:34;6.00;99.90
22065;DHT22;11197;53.110;8.468;2023-02-19T04:56:13;6.10;99.90
22065;DHT22;11197;53.110;8.468;2023-02-19T04:58:40;6.00;99.90
22065;DHT22;11197;53.110;8.468;2023-02-19T05:01:07;6.00;99.90
22065;DHT22;11197;53.110;8.468;2023-02-19T05:03:33;6.00;99.90
22065;DHT22;11197;53.110;8.468;2023-02-19T05:06:03;6.00;99.90
22065;DHT22;11197;53.110;8.468;2023-02-19T05:08:29;6.00;99.90
22065;DHT22;11197;53.110;8.468;2023-02-19T05:10:59;6.00;99.90
22065;DHT22;11197;53.110;8.468;2023-02-19T05:13:25;6.00;99.90
22065;DHT22;11197;53.110;8.468;2023-02-19T05:16:21;6.00;99.90
22065;DHT22;11197;53.110;8.468;2023-02-19T05:18:47;6.00;99.90
22065;DHT22;11197;53.110;8.468;2023-02-19T05:21:13;6.00;99.90
22065;DHT22;11197;53.110;8.468;2023-02-19T05:23:40;6.00;99.90
22065;DHT22;11197;53.110;8.468;2023-02-19T05:26:07;6.00;99.90
22065;DHT22;11197;53.110;8.468;2023-02-19T05:28:33;5.90;99.90
22065;DHT22;11197;53.110;8.468;2023-02-19T05:31:04;5.90;99.90
22065;DHT22;11197;53.110;8.468;2023-02-19T05:33:31;5.90;99.90
22065;DHT22;11197;53.110;8.468;2023-02-19T05:35:57;5.90;99.90
22065;DHT22;11197;53.110;8.468;2023-02-19T05:38:23;5.90;99.90
22065;DHT22;11197;53.110;8.468;2023-02-19T05:40:49;5.90;99.90
22065;DHT22;11197;53.110;8.468;2023-02-19T05:43:15;5.90;99.90
22065;DHT22;11197;53.110;8.468;2023-02-19T05:45:42;5.90;99.90
22065;DHT22;11197;53.110;8.468;2023-02-19T05:48:09;5.90;99.90
22065;DHT22;11197;53.110;8.468;2023-02-19T05:50:35;5.90;99.90
22065;DHT22;11197;53.110;8.468;2023-02-19T05:53:10;5.80;99.90
22065;DHT22;11197;53.110;8.468;2023-02-19T05:55:36;5.80;99.90
22065;DHT22;11197;53.110;8.468;2023-02-19T05:58:02;5.80;99.90
22065;DHT22;11197;53.110;8.468;2023-02-19T06:00:28;5.80;99.90
22065;DHT22;11197;53.110;8.468;2023-02-19T06:02:54;5.80;99.90
22065;DHT22;11197;53.110;8.468;2023-02-19T06:05:20;5.80;99.90
22065;DHT22;11197;53.110;8.468;2023-02-19T06:07:46;5.80;99.90
22065;DHT22;11197;53.110;8.468;2023-02-19T06:10:12;5.80;99.90
22065;DHT22;11197;53.110;8.468;2023-02-19T06:12:38;5.80;99.90
22065;DHT22;11197;53.110;8.468;2023-02-19T06:15:05;5.80;99.90
22065;DHT22;11197;53.110;8.468;2023-02-19T06:17:32;5.80;99.90
22065;DHT22;11197;53.110;8.468;2023-02-19T06:19:58;5.80;99.90
22065;DHT22;11197;53.110;8.468;2023-02-19T06:22:24;5.80;99.90
22065;DHT22;11197;53.110;8.468;2023-02-19T06:24:50;5.80;99.90
22065;DHT22;11197;53.110;8.468;2023-02-19T06:27:16;5.80;99.90
22065;DHT22;11197;53.110;8.468;2023-02-19T06:29:42;5.80;99.90
22065;DHT22;11197;53.110;8.468;2023-02-19T06:32:08;5.80;99.90
22065;DHT22;11197;53.110;8.468;2023-02-19T06:34:34;5.80;99.90
22065;DHT22;11197;53.110;8.468;2023-02-19T06:37:00;5.80;99.90
22065;DHT22;11197;53.110;8.468;2023-02-19T06:39:26;5.80;99.90
22065;DHT22;11197;53.110;8.468;2023-02-19T06:41:56;5.80;99.90
22065;DHT22;11197;53.110;8.468;2023-02-19T06:44:23;5.80;99.90
22065;DHT22;11197;53.110;8.468;2023-02-19T06:46:49;5.70;99.90
22065;DHT22;11197;53.110;8.468;2023-02-19T06:49:15;5.80;99.90
22065;DHT22;11197;53.110;8.468;2023-02-19T06:51:41;5.80;99.90
22065;DHT22;11197;53.110;8.468;2023-02-19T06:54:07;5.80;99.90
22065;DHT22;11197;53.110;8.468;2023-02-19T06:56:36;5.80;99.90
22065;DHT22;11197;53.110;8.468;2023-02-19T06:59:14;5.80;99.90
22065;DHT22;11197;53.110;8.468;2023-02-19T07:01:41;5.80;99.90
22065;DHT22;11197;53.110;8.468;2023-02-19T07:04:07;5.80;99.90
22065;DHT22;11197;53.110;8.468;2023-02-19T07:06:34;5.80;99.90
22065;DHT22;11197;53.110;8.468;2023-02-19T07:09:01;5.80;99.90
22065;DHT22;11197;53.110;8.468;2023-02-19T07:11:29;5.80;99.90
22065;DHT22;11197;53.110;8.468;2023-02-19T07:13:56;5.80;99.90
22065;DHT22;11197;53.110;8.468;2023-02-19T07:16:22;5.80;99.90
22065;DHT22;11197;53.110;8.468;2023-02-19T07:18:48;5.80;99.90
22065;DHT22;11197;53.110;8.468;2023-02-19T07:21:15;5.90;99.90
22065;DHT22;11197;53.110;8.468;2023-02-19T07:23:43;5.80;99.90
22065;DHT22;11197;53.110;8.468;2023-02-19T07:26:15;5.80;99.90
22065;DHT22;11197;53.110;8.468;2023-02-19T07:28:45;5.80;99.90
22065;DHT22;11197;53.110;8.468;2023-02-19T07:31:12;5.80;99.90
22065;DHT22;11197;53.110;8.468;2023-02-19T07:33:38;5.80;99.90
22065;DHT22;11197;53.110;8.468;2023-02-19T07:36:06;5.80;99.90
22065;DHT22;11197;53.110;8.468;2023-02-19T07:38:32;5.80;99.90
22065;DHT22;11197;53.110;8.468;2023-02-19T07:41:00;5.80;99.90
22065;DHT22;11197;53.110;8.468;2023-02-19T07:43:33;5.80;99.90
22065;DHT22;11197;53.110;8.468;2023-02-19T07:46:11;5.80;99.90
22065;DHT22;11197;53.110;8.468;2023-02-19T07:48:38;5.80;99.90
22065;DHT22;11197;53.110;8.468;2023-02-19T07:51:06;5.80;99.90
22065;DHT22;11197;53.110;8.468;2023-02-19T07:53:33;5.80;99.90
22065;DHT22;11197;53.110;8.468;2023-02-19T07:56:01;5.80;99.90
22065;DHT22;11197;53.110;8.468;2023-02-19T07:58:28;5.80;99.90
22065;DHT22;11197;53.110;8.468;2023-02-19T08:00:54;5.80;99.90
22065;DHT22;11197;53.110;8.468;2023-02-19T08:03:21;5.80;99.90
22065;DHT22;11197;53.110;8.468;2023-02-19T08:05:47;5.80;99.90
22065;DHT22;11197;53.110;8.468;2023-02-19T08:08:15;5.80;99.90
22065;DHT22;11197;53.110;8.468;2023-02-19T08:10:44;5.90;99.90
22065;DHT22;11197;53.110;8.468;2023-02-19T08:13:29;5.90;99.90
22065;DHT22;11197;53.110;8.468;2023-02-19T08:16:09;5.90;99.90
22065;DHT22;11197;53.110;8.468;2023-02-19T08:18:35;5.90;99.90
22065;DHT22;11197;53.110;8.468;2023-02-19T08:21:01;5.90;99.90
22065;DHT22;11197;53.110;8.468;2023-02-19T08:23:27;5.80;99.90
22065;DHT22;11197;53.110;8.468;2023-02-19T08:25:57;5.90;99.90
22065;DHT22;11197;53.110;8.468;2023-02-19T08:28:23;5.90;99.90
22065;DHT22;11197;53.110;8.468;2023-02-19T08:30:49;5.80;99.90
22065;DHT22;11197;53.110;8.468;2023-02-19T08:33:18;5.80;99.90
22065;DHT22;11197;53.110;8.468;2023-02-19T08:35:44;5.90;99.90
22065;DHT22;11197;53.110;8.468;2023-02-19T08:38:11;5.90;99.90
22065;DHT22;11197;53.110;8.468;2023-02-19T08:40:38;5.80;99.90
22065;DHT22;11197;53.110;8.468;2023-02-19T08:43:11;5.80;99.90
22065;DHT22;11197;53.110;8.468;2023-02-19T08:45:39;5.80;99.90
22065;DHT22;11197;53.110;8.468;2023-02-19T08:48:06;5.80;99.90
22065;DHT22;11197;53.110;8.468;2023-02-19T08:50:33;5.90;99.90
22065;DHT22;11197;53.110;8.468;2023-02-19T08:52:59;6.00;99.90
22065;DHT22;11197;53.110;8.468;2023-02-19T08:55:25;6.00;99.90
22065;DHT22;11197;53.110;8.468;2023-02-19T08:57:51;6.00;99.90
22065;DHT22;11197;53.110;8.468;2023-02-19T09:00:17;6.00;99.90
22065;DHT22;11197;53.110;8.468;2023-02-19T09:02:43;6.00;99.90
22065;DHT22;11197;53.110;8.468;2023-02-19T09:05:10;6.00;99.90
22065;DHT22;11197;53.110;8.468;2023-02-19T09:07:36;6.00;99.90
22065;DHT22;11197;53.110;8.468;2023-02-19T09:10:03;6.00;99.90
22065;DHT22;11197;53.110;8.468;2023-02-19T09:12:29;6.00;99.90
22065;DHT22;11197;53.110;8.468;2023-02-19T09:14:55;6.40;99.90
22065;DHT22;11197;53.110;8.468;2023-02-19T09:17:21;6.60;99.90
22065;DHT22;11197;53.110;8.468;2023-02-19T09:19:47;6.70;99.90
22065;DHT22;11197;53.110;8.468;2023-02-19T09:22:16;6.70;99.90
22065;DHT22;11197;53.110;8.468;2023-02-19T09:24:42;6.60;99.90
22065;DHT22;11197;53.110;8.468;2023-02-19T09:27:15;6.50;99.90
22065;DHT22;11197;53.110;8.468;2023-02-19T09:29:41;6.40;99.90
22065;DHT22;11197;53.110;8.468;2023-02-19T09:32:07;6.40;99.90
22065;DHT22;11197;53.110;8.468;2023-02-19T09:34:33;6.30;99.90
22065;DHT22;11197;53.110;8.468;2023-02-19T09:36:59;6.30;99.90
22065;DHT22;11197;53.110;8.468;2023-02-19T09:39:25;6.30;99.90
22065;DHT22;11197;53.110;8.468;2023-02-19T09:41:58;6.30;99.90
22065;DHT22;11197;53.110;8.468;2023-02-19T09:44:35;6.30;99.90
22065;DHT22;11197;53.110;8.468;2023-02-19T09:47:05;6.30;99.90
22065;DHT22;11197;53.110;8.468;2023-02-19T09:49:36;6.30;99.90
22065;DHT22;11197;53.110;8.468;2023-02-19T09:54:57;6.30;99.90
22065;DHT22;11197;53.110;8.468;2023-02-19T09:57:25;6.30;99.90
22065;DHT22;11197;53.110;8.468;2023-02-19T10:02:26;6.20;99.90
22065;DHT22;11197;53.110;8.468;2023-02-19T10:04:52;6.30;99.90
22065;DHT22;11197;53.110;8.468;2023-02-19T10:07:23;6.30;99.90
22065;DHT22;11197;53.110;8.468;2023-02-19T10:09:56;6.30;99.90
22065;DHT22;11197;53.110;8.468;2023-02-19T10:12:29;6.30;99.90
22065;DHT22;11197;53.110;8.468;2023-02-19T10:15:04;6.30;99.90
22065;DHT22;11197;53.110;8.468;2023-02-19T10:17:32;6.30;99.90
22065;DHT22;11197;53.110;8.468;2023-02-19T10:20:00;6.30;99.90
22065;DHT22;11197;53.110;8.468;2023-02-19T10:22:32;6.40;99.90
22065;DHT22;11197;53.110;8.468;2023-02-19T10:25:00;6.40;99.90
22065;DHT22;11197;53.110;8.468;2023-02-19T10:27:30;6.40;99.90
22065;DHT22;11197;53.110;8.468;2023-02-19T10:29:57;6.50;99.90
22065;DHT22;11197;53.110;8.468;2023-02-19T10:32:25;6.50;99.90
22065;DHT22;11197;53.110;8.468;2023-02-19T10:35:12;6.50;99.90
22065;DHT22;11197;53.110;8.468;2023-02-19T10:37:49;6.50;99.90
22065;DHT22;11197;53.110;8.468;2023-02-19T10:40:20;6.50;99.90
22065;DHT22;11197;53.110;8.468;2023-02-19T10:43:01;6.50;99.90
22065;DHT22;11197;53.110;8.468;2023-02-19T10:45:37;6.50;99.90
22065;DHT22;11197;53.110;8.468;2023-02-19T10:48:05;6.50;99.90
22065;DHT22;11197;53.110;8.468;2023-02-19T10:50:35;6.60;99.90
22065;DHT22;11197;53.110;8.468;2023-02-19T10:53:20;6.60;99.90
22065;DHT22;11197;53.110;8.468;2023-02-19T10:56:06;6.60;99.90
22065;DHT22;11197;53.110;8.468;2023-02-19T10:58:34;6.70;99.90
22065;DHT22;11197;53.110;8.468;2023-02-19T11:03:41;6.80;99.90
22065;DHT22;11197;53.110;8.468;2023-02-19T11:06:09;6.80;99.90
22065;DHT22;11197;53.110;8.468;2023-02-19T11:08:53;6.80;99.90
22065;DHT22;11197;53.110;8.468;2023-02-19T11:11:36;6.80;99.90
22065;DHT22;11197;53.110;8.468;2023-02-19T11:14:15;6.80;99.90
22065;DHT22;11197;53.110;8.468;2023-02-19T11:16:46;6.80;99.90
22065;DHT22;11197;53.110;8.468;2023-02-19T11:19:33;6.90;99.90
22065;DHT22;11197;53.110;8.468;2023-02-19T11:22:02;7.00;99.90
22065;DHT22;11197;53.110;8.468;2023-02-19T11:24:47;7.20;99.90
22065;DHT22;11197;53.110;8.468;2023-02-19T11:27:18;7.30;99.90
22065;DHT22;11197;53.110;8.468;2023-02-19T11:29:45;7.30;99.90
22065;DHT22;11197;53.110;8.468;2023-02-19T11:34:46;7.30;99.90
22065;DHT22;11197;53.110;8.468;2023-02-19T11:37:19;7.30;99.90
22065;DHT22;11197;53.110;8.468;2023-02-19T11:39:49;7.20;99.90
22065;DHT22;11197;53.110;8.468;2023-02-19T11:45:20;7.10;99.90
22065;DHT22;11197;53.110;8.468;2023-02-19T11:53:31;7.10;99.90
22065;DHT22;11197;53.110;8.468;2023-02-19T11:56:22;7.10;99.90
22065;DHT22;11197;53.110;8.468;2023-02-19T11:59:16;7.10;99.90
22065;DHT22;11197;53.110;8.468;2023-02-19T12:23:59;7.30;99.90
22065;DHT22;11197;53.110;8.468;2023-02-19T12:26:38;7.30;99.90
22065;DHT22;11197;53.110;8.468;2023-02-19T12:45:50;7.40;99.90
22065;DHT22;11197;53.110;8.468;2023-02-19T12:48:39;7.40;99.90
22065;DHT22;11197;53.110;8.468;2023-02-19T12:51:26;7.40;99.90
22065;DHT22;11197;53.110;8.468;2023-02-19T12:53:54;7.40;99.90
22065;DHT22;11197;53.110;8.468;2023-02-19T12:57:08;7.40;99.90
22065;DHT22;11197;53.110;8.468;2023-02-19T12:59:19;7.40;99.90
22065;DHT22;11197;53.110;8.468;2023-02-19T13:02:16;7.40;99.90
22065;DHT22;11197;53.110;8.468;2023-02-19T13:10:30;7.50;99.90
22065;DHT22;11197;53.110;8.468;2023-02-19T13:13:04;7.50;99.90
22065;DHT22;11197;53.110;8.468;2023-02-19T13:15:38;7.50;99.90
22065;DHT22;11197;53.110;8.468;2023-02-19T13:18:31;7.50;99.90
22065;DHT22;11197;53.110;8.468;2023-02-19T13:20:58;7.60;99.90
22065;DHT22;11197;53.110;8.468;2023-02-19T13:23:31;7.60;99.90
22065;DHT22;11197;53.110;8.468;2023-02-19T13:37:13;7.60;99.90
22065;DHT22;11197;53.110;8.468;2023-02-19T13:42:56;7.70;99.90
22065;DHT22;11197;53.110;8.468;2023-02-19T13:45:42;7.70;99.90
22065;DHT22;11197;53.110;8.468;2023-02-19T13:48:14;7.70;99.90
22065;DHT22;11197;53.110;8.468;2023-02-19T13:50:50;7.70;99.90
22065;DHT22;11197;53.110;8.468;2023-02-19T14:04:49;7.80;99.90
22065;DHT22;11197;53.110;8.468;2023-02-19T14:28:17;8.00;99.90
22065;DHT22;11197;53.110;8.468;2023-02-19T14:33:25;8.00;99.90
22065;DHT22;11197;53.110;8.468;2023-02-19T14:35:55;8.00;99.90
22065;DHT22;11197;53.110;8.468;2023-02-19T14:38:28;8.00;99.90
22065;DHT22;11197;53.110;8.468;2023-02-19T14:40:56;7.90;99.90
22065;DHT22;11197;53.110;8.468;2023-02-19T14:43:24;8.00;99.90
22065;DHT22;11197;53.110;8.468;2023-02-19T14:45:57;8.00;99.90
22065;DHT22;11197;53.110;8.468;2023-02-19T14:48:37;8.00;99.90
22065;DHT22;11197;53.110;8.468;2023-02-19T14:51:12;8.00;99.90
22065;DHT22;11197;53.110;8.468;2023-02-19T14:53:41;8.00;99.90
22065;DHT22;11197;53.110;8.468;2023-02-19T14:56:25;8.00;99.90
22065;DHT22;11197;53.110;8.468;2023-02-19T15:01:37;8.00;99.90
22065;DHT22;11197;53.110;8.468;2023-02-19T15:04:04;8.00;99.90
22065;DHT22;11197;53.110;8.468;2023-02-19T15:06:33;8.10;99.90
22065;DHT22;11197;53.110;8.468;2023-02-19T15:09:05;8.10;99.90
22065;DHT22;11197;53.110;8.468;2023-02-19T15:11:32;8.10;99.90
22065;DHT22;11197;53.110;8.468;2023-02-19T15:14:04;8.10;99.90
22065;DHT22;11197;53.110;8.468;2023-02-19T15:16:33;8.10;99.90
22065;DHT22;11197;53.110;8.468;2023-02-19T15:19:04;8.10;99.90
22065;DHT22;11197;53.110;8.468;2023-02-19T15:21:33;8.10;99.90
22065;DHT22;11197;53.110;8.468;2023-02-19T15:24:03;8.30;99.90
22065;DHT22;11197;53.110;8.468;2023-02-19T15:26:37;8.40;99.90
22065;DHT22;11197;53.110;8.468;2023-02-19T15:29:13;8.40;99.90
22065;DHT22;11197;53.110;8.468;2023-02-19T15:31:57;8.40;99.90
22065;DHT22;11197;53.110;8.468;2023-02-19T15:34:25;8.30;99.90
22065;DHT22;11197;53.110;8.468;2023-02-19T15:37:00;8.30;99.90
22065;DHT22;11197;53.110;8.468;2023-02-19T15:42:01;8.30;99.90
22065;DHT22;11197;53.110;8.468;2023-02-19T15:50:21;8.10;99.90
22065;DHT22;11197;53.110;8.468;2023-02-19T15:53:04;8.10;99.90
22065;DHT22;11197;53.110;8.468;2023-02-19T16:00:40;8.00;99.90
22065;DHT22;11197;53.110;8.468;2023-02-19T16:03:19;8.00;99.90
22065;DHT22;11197;53.110;8.468;2023-02-19T16:05:56;7.90;99.90
22065;DHT22;11197;53.110;8.468;2023-02-19T16:08:31;7.90;99.90
22065;DHT22;11197;53.110;8.468;2023-02-19T16:10:59;7.90;99.90
22065;DHT22;11197;53.110;8.468;2023-02-19T16:13:27;7.90;99.90
22065;DHT22;11197;53.110;8.468;2023-02-19T16:16:02;7.90;99.90
22065;DHT22;11197;53.110;8.468;2023-02-19T16:18:30;7.90;99.90
22065;DHT22;11197;53.110;8.468;2023-02-19T16:20:57;7.80;99.90
22065;DHT22;11197;53.110;8.468;2023-02-19T16:23:24;7.80;99.90
22065;DHT22;11197;53.110;8.468;2023-02-19T16:26:08;7.80;99.90
22065;DHT22;11197;53.110;8.468;2023-02-19T16:28:38;7.80;99.90
22065;DHT22;11197;53.110;8.468;2023-02-19T16:31:06;7.70;99.90
22065;DHT22;11197;53.110;8.468;2023-02-19T16:33:43;7.70;99.90
22065;DHT22;11197;53.110;8.468;2023-02-19T16:47:09;7.60;99.90
22065;DHT22;11197;53.110;8.468;2023-02-19T16:49:39;7.60;99.90
22065;DHT22;11197;53.110;8.468;2023-02-19T16:52:11;7.60;99.90
22065;DHT22;11197;53.110;8.468;2023-02-19T16:54:38;7.60;99.90
22065;DHT22;11197;53.110;8.468;2023-02-19T16:57:04;7.50;99.90
22065;DHT22;11197;53.110;8.468;2023-02-19T16:59:30;7.50;99.90
22065;DHT22;11197;53.110;8.468;2023-02-19T17:01:56;7.50;99.90
22065;DHT22;11197;53.110;8.468;2023-02-19T17:04:22;7.50;99.90
22065;DHT22;11197;53.110;8.468;2023-02-19T17:06:47;7.50;99.90
22065;DHT22;11197;53.110;8.468;2023-02-19T17:09:13;7.40;99.90
22065;DHT22;11197;53.110;8.468;2023-02-19T17:11:39;7.40;99.90
22065;DHT22;11197;53.110;8.468;2023-02-19T17:14:05;7.40;99.90
22065;DHT22;11197;53.110;8.468;2023-02-19T17:16:33;7.40;99.90
22065;DHT22;11197;53.110;8.468;2023-02-19T17:19:09;7.30;99.90
22065;DHT22;11197;53.110;8.468;2023-02-19T17:21:36;7.30;99.90
22065;DHT22;11197;53.110;8.468;2023-02-19T17:24:02;7.30;99.90
22065;DHT22;11197;53.110;8.468;2023-02-19T17:26:30;7.30;99.90
22065;DHT22;11197;53.110;8.468;2023-02-19T17:29:00;7.20;99.90
22065;DHT22;11197;53.110;8.468;2023-02-19T17:31:27;7.20;99.90
22065;DHT22;11197;53.110;8.468;2023-02-19T17:33:53;7.20;99.90
22065;DHT22;11197;53.110;8.468;2023-02-19T17:36:27;7.10;99.90
22065;DHT22;11197;53.110;8.468;2023-02-19T17:38:59;7.10;99.90
22065;DHT22;11197;53.110;8.468;2023-02-19T17:41:26;7.10;99.90
22065;DHT22;11197;53.110;8.468;2023-02-19T17:43:51;7.00;99.90
22065;DHT22;11197;53.110;8.468;2023-02-19T17:46:21;7.00;99.90
22065;DHT22;11197;53.110;8.468;2023-02-19T17:48:47;7.00;99.90
22065;DHT22;11197;53.110;8.468;2023-02-19T17:51:13;7.00;99.90
22065;DHT22;11197;53.110;8.468;2023-02-19T17:53:39;7.00;99.90
22065;DHT22;11197;53.110;8.468;2023-02-19T17:56:05;6.90;99.90
22065;DHT22;11197;53.110;8.468;2023-02-19T17:58:31;6.90;99.90
22065;DHT22;11197;53.110;8.468;2023-02-19T18:00:57;6.90;99.90
22065;DHT22;11197;53.110;8.468;2023-02-19T18:03:23;6.90;99.90
22065;DHT22;11197;53.110;8.468;2023-02-19T18:05:49;6.80;99.90
22065;DHT22;11197;53.110;8.468;2023-02-19T18:08:15;6.80;99.90
22065;DHT22;11197;53.110;8.468;2023-02-19T18:10:41;6.80;99.90
22065;DHT22;11197;53.110;8.468;2023-02-19T18:13:07;6.80;99.90
22065;DHT22;11197;53.110;8.468;2023-02-19T18:15:33;6.80;99.90
22065;DHT22;11197;53.110;8.468;2023-02-19T18:17:59;6.80;99.90
22065;DHT22;11197;53.110;8.468;2023-02-19T18:20:27;7.40;99.90
22065;DHT22;11197;53.110;8.468;2023-02-19T18:22:54;7.80;99.90
22065;DHT22;11197;53.110;8.468;2023-02-19T18:25:20;7.80;99.90
22065;DHT22;11197;53.110;8.468;2023-02-19T18:27:47;7.80;99.90
22065;DHT22;11197;53.110;8.468;2023-02-19T18:30:15;7.70;99.90
22065;DHT22;11197;53.110;8.468;2023-02-19T18:32:43;7.60;99.90
22065;DHT22;11197;53.110;8.468;2023-02-19T18:35:09;7.50;99.90
22065;DHT22;11197;53.110;8.468;2023-02-19T18:37:35;7.50;99.90
22065;DHT22;11197;53.110;8.468;2023-02-19T18:40:02;7.40;99.90
22065;DHT22;11197;53.110;8.468;2023-02-19T18:42:28;7.40;99.90
22065;DHT22;11197;53.110;8.468;2023-02-19T18:44:54;7.40;99.90
22065;DHT22;11197;53.110;8.468;2023-02-19T18:47:21;7.30;99.90
22065;DHT22;11197;53.110;8.468;2023-02-19T18:49:48;7.30;99.90
22065;DHT22;11197;53.110;8.468;2023-02-19T18:52:14;7.30;99.90
22065;DHT22;11197;53.110;8.468;2023-02-19T18:54:40;7.30;99.90
22065;DHT22;11197;53.110;8.468;2023-02-19T18:57:08;7.20;99.90